Time;durP1;ratioP1;P1;durP2;ratioP2;P2;SDS_P1;SDS_P2;PMS_P1;PMS_P2;Temp;Humidity;BMP_temperature;BMP_pressure;BME280_temperature;BME280_humidity;BME280_pressure;Samples;Min_cycle;Max_cycle;Signal;HPM_P1;HPM_P2
2023/06/01 04:40:47;;;;;;;;;;;;;;;14.63;71.50;100204.55;107316;1278;24213;-50
2023/06/01 04:43:18;;;;;;;;;;;;;;;14.82;71.69;100204.38;107036;1279;22533;-44
2023/06/01 04:45:46;;;;;;;;;;;;;;;15.00;71.22;100202.98;107120;1279;22509;-47
2023/06/01 04:48:16;;;;;;;;;;;;;;;15.17;70.89;100209.30;107016;1279;22515;-44
2023/06/01 04:51:04;;;;;;;;;;;;;;;15.36;71.06;100202.59;106931;1280;23258;-50
2023/06/01 04:53:32;;;;;;;;;;;;;;;15.54;71.18;100200.10;109534;1276;22486;-44
2023/06/01 04:55:59;;;;;;;;;;;;;;;15.73;71.44;100199.90;109714;1275;22520;-49
2023/06/01 04:58:27;;;;;;;;;;;;;;;15.94;71.09;100201.17;109842;1272;22474;-49
2023/06/01 05:00:55;;;;;;;;;;;;;;;16.15;70.12;100199.59;109984;1279;22432;-49
2023/06/01 05:03:22;;;;;;;;;;;;;;;16.37;69.17;100201.70;109953;1279;22461;-49
2023/06/01 05:05:50;;;;;;;;;;;;;;;16.58;68.07;100194.81;109877;1279;23200;-44
2023/06/01 05:08:18;;;;;;;;;;;;;;;16.79;67.22;100192.89;109849;1273;22447;-46
2023/06/01 05:10:45;;;;;;;;;;;;;;;16.99;65.89;100192.17;109757;1272;23348;-44
2023/06/01 05:13:13;;;;;;;;;;;;;;;17.19;64.75;100190.55;109806;1272;22410;-45
2023/06/01 05:15:40;;;;;;;;;;;;;;;17.39;64.12;100189.43;109787;1279;23282;-49
2023/06/01 05:18:08;;;;;;;;;;;;;;;17.59;63.43;100191.13;109604;1279;23327;-49
2023/06/01 05:20:37;;;;;;;;;;;;;;;17.78;62.70;100194.42;109793;1278;22903;-45
2023/06/01 05:23:05;;;;;;;;;;;;;;;17.99;60.31;100193.61;109816;1278;22430;-45
2023/06/01 05:25:32;;;;;;;;;;;;;;;18.19;57.90;100190.48;109887;1279;22448;-44
2023/06/01 05:28:00;;;;;;;;;;;;;;;18.39;56.11;100191.59;109829;1278;23114;-45
2023/06/01 05:30:28;;;;;;;;;;;;;;;18.59;54.65;100195.67;109800;1276;22460;-45
2023/06/01 05:32:56;;;;;;;;;;;;;;;18.77;53.15;100196.45;109877;1272;22485;-45
2023/06/01 05:35:23;;;;;;;;;;;;;;;18.95;51.35;100196.52;109817;1273;22416;-48
2023/06/01 05:37:51;;;;;;;;;;;;;;;19.11;49.78;100197.38;109789;1272;23441;-45
2023/06/01 05:40:19;;;;;;;;;;;;;;;19.25;49.34;100198.46;109778;1277;22810;-45
2023/06/01 05:42:47;;;;;;;;;;;;;;;19.36;49.00;100197.67;109859;1277;22449;-48
2023/06/01 05:45:14;;;;;;;;;;;;;;;19.48;48.12;100198.80;109813;1278;23274;-44
2023/06/01 05:47:42;;;;;;;;;;;;;;;19.59;46.63;100198.77;109573;1274;22429;-50
2023/06/01 05:50:11;;;;;;;;;;;;;;;19.71;46.76;100197.42;109761;1264;23247;-50
2023/06/01 05:52:42;;;;;;;;;;;;;;;19.82;45.47;100198.39;109764;1274;22436;-50
2023/06/01 05:55:10;;;;;;;;;;;;;;;19.90;44.26;100196.31;109804;1279;22450;-49
2023/06/01 05:57:37;;;;;;;;;;;;;;;19.94;43.19;100196.16;109913;1271;22558;-48
2023/06/01 06:00:13;;;;;;;;;;;;;;;19.99;42.89;100198.29;109796;1279;23206;-48
2023/06/01 06:02:43;;;;;;;;;;;;;;;20.09;42.56;100200.70;109848;1274;22456;-49
2023/06/01 06:05:11;;;;;;;;;;;;;;;20.20;42.28;100198.10;109847;1279;22840;-49
2023/06/01 06:07:39;;;;;;;;;;;;;;;20.32;41.36;100198.14;109789;1272;22439;-48
2023/06/01 06:10:06;;;;;;;;;;;;;;;20.47;41.54;100199.34;109297;1271;22928;-49
2023/06/01 06:12:34;;;;;;;;;;;;;;;20.61;39.97;100199.27;109788;1264;22469;-49
2023/06/01 06:15:01;;;;;;;;;;;;;;;20.75;38.90;100197.27;109700;1272;23142;-49
2023/06/01 06:17:29;;;;;;;;;;;;;;;20.84;37.36;100197.02;109724;1274;22444;-49
2023/06/01 06:19:57;;;;;;;;;;;;;;;20.87;36.65;100196.36;109776;1278;22440;-48
2023/06/01 06:22:25;;;;;;;;;;;;;;;20.93;35.53;100195.20;109746;1279;23093;-45
2023/06/01 06:24:52;;;;;;;;;;;;;;;20.99;35.69;100197.94;109765;1274;22429;-45
2023/06/01 06:27:20;;;;;;;;;;;;;;;21.11;35.75;100194.58;109582;1274;22487;-45
2023/06/01 06:29:47;;;;;;;;;;;;;;;21.23;35.32;100194.91;109793;1279;22456;-44
2023/06/01 06:32:15;;;;;;;;;;;;;;;21.35;35.09;100194.42;109730;1278;22452;-43
2023/06/01 06:34:43;;;;;;;;;;;;;;;21.44;34.44;100197.17;109825;1278;22441;-44
2023/06/01 06:37:11;;;;;;;;;;;;;;;21.52;34.45;100196.11;109864;1274;22435;-44
2023/06/01 06:39:38;;;;;;;;;;;;;;;21.59;33.43;100195.60;109841;1279;22438;-44
2023/06/01 06:42:05;;;;;;;;;;;;;;;21.63;33.40;100190.27;109720;1275;22445;-48
2023/06/01 06:44:33;;;;;;;;;;;;;;;21.68;33.88;100189.11;109842;1277;23014;-47
2023/06/01 06:47:01;;;;;;;;;;;;;;;21.75;34.05;100189.69;108194;1274;23247;-43
2023/06/01 06:49:29;;;;;;;;;;;;;;;21.83;33.35;100185.41;109790;1274;22933;-49
2023/06/01 06:51:57;;;;;;;;;;;;;;;21.92;33.62;100184.42;109312;1279;22447;-44
2023/06/01 06:54:24;;;;;;;;;;;;;;;22.04;33.61;100181.69;109073;1275;24212;-43
2023/06/01 06:56:52;;;;;;;;;;;;;;;22.12;33.14;100176.37;109627;1278;23241;-44
2023/06/01 06:59:19;;;;;;;;;;;;;;;22.12;31.91;100177.08;109758;1282;23236;-44
2023/06/01 07:01:47;;;;;;;;;;;;;;;22.05;32.03;100180.95;108813;1278;22718;-44
2023/06/01 07:04:15;;;;;;;;;;;;;;;22.05;32.29;100185.02;109178;1282;24220;-43
2023/06/01 07:06:44;;;;;;;;;;;;;;;22.11;31.91;100183.52;109242;1275;22542;-43
2023/06/01 07:09:14;;;;;;;;;;;;;;;22.22;31.54;100181.36;109492;1278;22426;-44
2023/06/01 07:11:42;;;;;;;;;;;;;;;22.32;31.08;100181.09;109561;1275;22938;-44
2023/06/01 07:14:10;;;;;;;;;;;;;;;22.35;31.65;100180.36;109044;1276;23188;-45
2023/06/01 07:16:38;;;;;;;;;;;;;;;22.41;31.68;100182.04;109559;1278;22462;-42
2023/06/01 07:19:06;;;;;;;;;;;;;;;22.49;31.61;100185.88;109591;1282;22488;-43
2023/06/01 07:21:36;;;;;;;;;;;;;;;22.53;30.58;100181.78;109388;1278;22490;-49
2023/06/01 07:24:04;;;;;;;;;;;;;;;22.49;30.23;100183.36;109355;1276;22554;-48
2023/06/01 07:26:32;;;;;;;;;;;;;;;22.46;30.08;100178.74;109527;1282;22450;-44
2023/06/01 07:29:00;;;;;;;;;;;;;;;22.46;29.93;100175.52;109020;1275;22724;-47
2023/06/01 07:31:27;;;;;;;;;;;;;;;22.49;30.23;100179.48;109570;1282;22436;-48
2023/06/01 07:33:59;;;;;;;;;;;;;;;22.60;30.39;100178.58;109103;1275;23973;-49
2023/06/01 07:40:13;;;;;;;;;;;;;;;22.98;30.61;100181.41;109308;1282;22510;-44
2023/06/01 07:42:41;;;;;;;;;;;;;;;23.04;30.52;100182.13;109046;1267;22506;-45
2023/06/01 07:45:09;;;;;;;;;;;;;;;23.08;30.40;100184.95;109637;1282;22490;-44
2023/06/01 07:47:36;;;;;;;;;;;;;;;23.12;30.29;100181.52;109639;1281;22440;-45
2023/06/01 07:50:04;;;;;;;;;;;;;;;23.18;29.62;100179.62;109727;1282;22431;-43
2023/06/01 07:52:32;;;;;;;;;;;;;;;23.17;29.13;100176.52;109280;1282;22517;-44
2023/06/01 07:55:00;;;;;;;;;;;;;;;23.15;29.37;100181.95;108731;1276;22546;-43
2023/06/01 07:57:27;;;;;;;;;;;;;;;23.16;29.88;100173.31;109699;1282;22463;-44
2023/06/01 07:59:55;;;;;;;;;;;;;;;23.26;30.16;100174.75;107601;1282;22521;-49
2023/06/01 08:02:23;;;;;;;;;;;;;;;23.30;29.41;100179.42;108774;1281;23229;-44
2023/06/01 08:04:52;;;;;;;;;;;;;;;23.25;29.17;100173.36;109653;1278;22513;-45
2023/06/01 08:07:19;;;;;;;;;;;;;;;23.22;28.83;100168.23;109660;1275;22432;-44
2023/06/01 08:09:47;;;;;;;;;;;;;;;23.25;29.09;100171.06;109625;1282;22560;-44
2023/06/01 08:12:15;;;;;;;;;;;;;;;23.37;29.95;100168.12;109335;1282;22471;-43
2023/06/01 08:14:44;;;;;;;;;;;;;;;23.56;29.51;100166.34;109447;1282;22569;-48
2023/06/01 08:17:13;;;;;;;;;;;;;;;23.71;28.52;100162.86;109155;1282;22486;-46
2023/06/01 08:19:44;;;;;;;;;;;;;;;23.76;28.19;100169.84;109749;1276;23216;-49
2023/06/01 08:22:12;;;;;;;;;;;;;;;23.77;28.48;100165.52;109308;1277;22494;-48
2023/06/01 08:24:40;;;;;;;;;;;;;;;23.76;28.39;100168.61;109563;1281;23173;-49
2023/06/01 08:27:17;;;;;;;;;;;;;;;23.71;28.31;100162.15;109621;1278;22472;-48
2023/06/01 08:29:46;;;;;;;;;;;;;;;23.72;28.74;100163.52;109528;1277;22442;-48
2023/06/01 08:32:13;;;;;;;;;;;;;;;23.81;29.26;100162.42;109457;1275;22413;-48
2023/06/01 08:34:41;;;;;;;;;;;;;;;23.98;28.41;100159.19;109544;1282;22409;-49
2023/06/01 08:37:08;;;;;;;;;;;;;;;24.07;28.11;100160.44;109570;1282;22406;-44
2023/06/01 08:39:36;;;;;;;;;;;;;;;24.15;28.12;100159.96;109511;1282;22530;-44
2023/06/01 08:42:14;;;;;;;;;;;;;;;24.29;28.01;100154.68;109544;1281;23045;-45
2023/06/01 08:44:42;;;;;;;;;;;;;;;24.45;28.85;100149.70;109681;1279;22458;-50
2023/06/01 08:47:09;;;;;;;;;;;;;;;24.50;27.95;100149.77;109670;1281;22409;-49
2023/06/01 08:49:37;;;;;;;;;;;;;;;24.51;27.12;100144.65;109720;1281;23174;-45
2023/06/01 08:52:11;;;;;;;;;;;;;;;24.45;26.26;100138.25;109494;1273;22443;-45
2023/06/01 08:54:39;;;;;;;;;;;;;;;24.29;26.89;100138.08;109717;1281;22450;-49
2023/06/01 08:57:07;;;;;;;;;;;;;;;24.24;27.40;100139.66;109751;1281;22408;-48
2023/06/01 08:59:35;;;;;;;;;;;;;;;24.27;27.65;100137.71;109708;1281;23092;-44
2023/06/01 09:02:03;;;;;;;;;;;;;;;24.39;27.67;100137.39;109767;1281;22454;-43
2023/06/01 09:04:32;;;;;;;;;;;;;;;24.52;28.03;100135.36;109815;1276;22445;-43
2023/06/01 09:06:59;;;;;;;;;;;;;;;24.61;27.52;100134.42;109863;1275;22415;-43
2023/06/01 09:09:26;;;;;;;;;;;;;;;24.71;26.69;100130.95;109932;1275;22847;-43
2023/06/01 09:12:13;;;;;;;;;;;;;;;24.85;26.36;100128.34;109863;1281;23086;-44
2023/06/01 09:14:40;;;;;;;;;;;;;;;24.98;26.30;100130.02;109858;1275;22454;-43
2023/06/01 09:17:12;;;;;;;;;;;;;;;25.04;26.05;100132.88;109786;1275;22431;-44
2023/06/01 09:19:44;;;;;;;;;;;;;;;25.03;25.84;100132.17;108779;1280;22518;-49
2023/06/01 09:22:13;;;;;;;;;;;;;;;25.00;25.41;100131.17;109018;1281;22996;-48
2023/06/01 09:24:41;;;;;;;;;;;;;;;24.99;25.96;100125.66;109866;1275;23226;-49
2023/06/01 09:27:09;;;;;;;;;;;;;;;25.02;26.11;100127.61;109771;1281;23018;-44
2023/06/01 09:29:36;;;;;;;;;;;;;;;25.07;25.85;100124.17;109812;1275;22413;-48
2023/06/01 09:32:04;;;;;;;;;;;;;;;25.10;26.47;100123.92;109920;1280;22431;-44
2023/06/01 09:34:32;;;;;;;;;;;;;;;25.15;26.17;100127.20;109833;1278;22446;-45
2023/06/01 09:36:59;;;;;;;;;;;;;;;25.15;26.56;100120.43;109415;1278;22520;-47
2023/06/01 09:39:26;;;;;;;;;;;;;;;25.18;26.29;100114.88;108739;1278;23200;-44
2023/06/01 09:41:54;;;;;;;;;;;;;;;25.22;25.45;100110.33;109740;1278;22443;-49
2023/06/01 09:44:31;;;;;;;;;;;;;;;25.27;25.55;100110.94;109899;1281;22429;-44
2023/06/01 09:46:59;;;;;;;;;;;;;;;25.33;25.51;100111.05;109853;1281;22425;-44
2023/06/01 09:49:28;;;;;;;;;;;;;;;25.37;25.22;100116.17;109978;1281;22420;-44
2023/06/01 09:52:16;;;;;;;;;;;;;;;25.37;24.75;100111.73;109052;1281;25455;-45
2023/06/01 09:54:45;;;;;;;;;;;;;;;25.37;24.95;100112.27;108867;1281;22493;-48
2023/06/01 09:57:12;;;;;;;;;;;;;;;25.36;24.65;100101.95;107579;1280;22503;-42
2023/06/01 09:59:43;;;;;;;;;;;;;;;25.31;25.41;100100.81;108738;1281;25495;-49
2023/06/01 10:02:12;;;;;;;;;;;;;;;25.30;24.65;100091.98;107566;1281;22507;-49
2023/06/01 10:04:40;;;;;;;;;;;;;;;25.30;24.55;100092.20;106930;1280;22513;-44
2023/06/01 10:07:10;;;;;;;;;;;;;;;25.23;24.06;100090.85;109819;1281;23226;-48
2023/06/01 10:09:38;;;;;;;;;;;;;;;25.13;23.81;100087.38;109270;1273;22515;-45
2023/06/01 10:12:07;;;;;;;;;;;;;;;25.12;25.18;100089.20;107837;1276;22534;-43
2023/06/01 10:14:35;;;;;;;;;;;;;;;25.19;25.22;100093.59;109492;1278;22514;-45
2023/06/01 10:17:03;;;;;;;;;;;;;;;25.23;24.28;100090.29;108300;1281;23359;-46
2023/06/01 10:19:30;;;;;;;;;;;;;;;25.27;24.78;100087.02;109874;1278;22412;-46
2023/06/01 10:21:58;;;;;;;;;;;;;;;25.32;24.70;100083.44;109777;1281;23908;-43
2023/06/01 10:24:26;;;;;;;;;;;;;;;25.42;24.09;100086.59;109770;1275;22443;-43
2023/06/01 10:27:06;;;;;;;;;;;;;;;25.47;24.26;100089.24;109797;1277;22449;-43
